createdAt,value
2022-08-14T00:00:57.561Z,21.08
2022-08-14T00:02:31.563Z,21.08
2022-08-14T00:04:34.853Z,21.08
2022-08-14T00:06:00.556Z,21.08
2022-08-14T00:07:35.539Z,21.09
2022-08-14T00:09:15.349Z,21.07
2022-08-14T00:10:53.193Z,21.04
2022-08-14T00:12:33.387Z,21.05
2022-08-14T00:14:17.137Z,21.05
2022-08-14T00:15:51.873Z,21.12
2022-08-14T00:17:26.883Z,21.14
2022-08-14T00:19:06.217Z,21.16
2022-08-14T00:20:53.964Z,21.17
2022-08-14T00:22:56.665Z,21.17
2022-08-14T00:24:23.282Z,21.18
2022-08-14T00:26:06.224Z,21.19
2022-08-14T00:27:42.895Z,21.17
2022-08-14T00:29:16.323Z,21.11
2022-08-14T00:30:49.947Z,20.98
2022-08-14T00:32:52.194Z,20.98
2022-08-14T00:34:37.376Z,20.89
2022-08-14T00:36:35.424Z,20.89
2022-08-14T00:38:04.235Z,20.90
2022-08-14T00:39:40.696Z,20.87
2022-08-14T00:41:16.218Z,20.85
2022-08-14T00:42:55.530Z,20.85
2022-08-14T00:44:32.237Z,20.84
2022-08-14T00:46:08.431Z,20.80
2022-08-14T00:48:01.544Z,20.77
2022-08-14T00:49:37.833Z,20.76
2022-08-14T00:51:16.924Z,20.76
2022-08-14T00:52:53.460Z,20.72
2022-08-14T00:54:27.615Z,20.68
2022-08-14T00:56:00.841Z,20.68
2022-08-14T00:57:41.542Z,20.64
2022-08-14T00:59:16.155Z,20.65
2022-08-14T01:00:57.856Z,20.65
2022-08-14T01:02:31.977Z,20.63
2022-08-14T01:04:06.197Z,20.61
2022-08-14T01:05:51.660Z,20.57
2022-08-14T01:07:27.426Z,20.55
2022-08-14T01:09:02.349Z,20.55
2022-08-14T01:10:53.370Z,20.53
2022-08-14T01:12:30.017Z,20.53
2022-08-14T01:14:25.627Z,20.52
2022-08-14T01:16:03.070Z,20.42
2022-08-14T01:17:52.898Z,20.32
2022-08-14T01:19:44.064Z,20.28
2022-08-14T01:21:25.047Z,20.32
2022-08-14T01:23:02.543Z,20.33
2022-08-14T01:24:38.474Z,20.36
2022-08-14T01:26:13.047Z,20.40
2022-08-14T01:27:58.826Z,20.41
2022-08-14T01:29:58.698Z,20.38
2022-08-14T01:31:37.141Z,20.36
2022-08-14T01:33:12.972Z,20.39
2022-08-14T01:35:21.298Z,20.41
2022-08-14T01:36:44.184Z,20.45
2022-08-14T01:38:17.583Z,20.48
2022-08-14T01:39:51.696Z,20.50
2022-08-14T01:41:30.090Z,20.51
2022-08-14T01:43:05.128Z,20.54
2022-08-14T01:44:39.038Z,20.54
2022-08-14T01:46:24.574Z,20.55
2022-08-14T01:48:03.702Z,20.52
2022-08-14T01:49:42.718Z,20.56
2022-08-14T01:51:31.907Z,20.58
2022-08-14T01:53:07.957Z,20.57
2022-08-14T01:54:41.222Z,20.51
2022-08-14T01:56:18.834Z,20.40
2022-08-14T01:58:02.142Z,20.19
2022-08-14T01:59:45.826Z,20.13
2022-08-14T02:01:20.400Z,20.16
2022-08-14T02:03:00.347Z,20.18
2022-08-14T02:04:56.119Z,20.20
2022-08-14T02:06:32.163Z,20.21
2022-08-14T02:08:10.356Z,20.23
2022-08-14T02:09:44.558Z,20.22
2022-08-14T02:11:29.136Z,20.26
2022-08-14T02:13:08.399Z,20.27
2022-08-14T02:14:59.175Z,20.31
2022-08-14T02:16:39.283Z,20.33
2022-08-14T02:18:15.280Z,20.37
2022-08-14T02:19:48.778Z,20.40
2022-08-14T02:21:26.995Z,20.44
2022-08-14T02:23:00.764Z,20.44
2022-08-14T02:24:39.131Z,20.48
2022-08-14T02:26:29.198Z,20.47
2022-08-14T02:28:25.731Z,20.48
2022-08-14T02:30:00.191Z,20.48
2022-08-14T02:31:43.244Z,20.46
2022-08-14T02:33:18.530Z,20.46
2022-08-14T02:34:52.733Z,20.47
2022-08-14T02:37:02.952Z,20.49
2022-08-14T02:38:29.712Z,20.51
2022-08-14T02:40:05.963Z,20.50
2022-08-14T02:41:52.412Z,20.48
2022-08-14T02:43:37.114Z,20.43
2022-08-14T02:45:19.283Z,20.42
2022-08-14T02:47:01.288Z,20.40
2022-08-14T02:49:02.020Z,20.37
2022-08-14T02:50:29.869Z,20.38
2022-08-14T02:52:26.751Z,20.38
2022-08-14T02:54:03.648Z,20.41
2022-08-14T02:55:40.287Z,20.44
2022-08-14T02:57:39.394Z,20.45
2022-08-14T02:59:09.819Z,20.46
2022-08-14T03:00:43.345Z,20.43
2022-08-14T03:02:48.896Z,20.46
2022-08-14T03:04:11.694Z,20.44
2022-08-14T03:05:45.220Z,20.43
2022-08-14T03:07:18.764Z,20.44
2022-08-14T03:08:52.861Z,20.38
2022-08-14T03:10:32.172Z,20.33
2022-08-14T03:12:08.548Z,20.28
2022-08-14T03:13:44.047Z,20.28
2022-08-14T03:15:19.194Z,20.28
2022-08-14T03:16:54.421Z,20.23
2022-08-14T03:18:31.218Z,20.21
2022-08-14T03:20:07.067Z,20.19
2022-08-14T03:21:45.334Z,20.16
2022-08-14T03:23:17.564Z,20.20
2022-08-14T03:24:50.928Z,20.24
2022-08-14T03:26:30.317Z,20.29
2022-08-14T03:28:07.281Z,20.32
2022-08-14T03:29:41.005Z,20.32
2022-08-14T03:31:15.046Z,20.32
2022-08-14T03:32:48.268Z,20.30
2022-08-14T03:34:48.503Z,20.25
2022-08-14T03:37:51.035Z,20.23
2022-08-14T03:39:14.960Z,20.23
2022-08-14T03:40:17.572Z,20.29
2022-08-14T03:41:54.377Z,20.33
2022-08-14T03:43:32.416Z,20.40
2022-08-14T03:45:27.853Z,20.43
2022-08-14T03:47:03.140Z,20.47
2022-08-14T03:48:40.283Z,20.46
2022-08-14T03:50:14.321Z,20.40
2022-08-14T03:52:17.915Z,20.49
2022-08-14T03:53:59.773Z,20.45
2022-08-14T03:55:33.063Z,20.41
2022-08-14T03:57:07.156Z,20.38
2022-08-14T03:58:45.295Z,20.38
2022-08-14T04:00:40.326Z,20.38
2022-08-14T04:02:33.307Z,20.34
2022-08-14T04:04:07.961Z,20.42
2022-08-14T04:05:48.330Z,20.43
2022-08-14T04:07:22.814Z,20.39
2022-08-14T04:08:57.941Z,20.49
2022-08-14T04:10:32.852Z,20.52
2022-08-14T04:12:08.347Z,20.56
2022-08-14T04:13:49.252Z,20.62
2022-08-14T04:15:24.336Z,20.68
2022-08-14T04:16:58.639Z,20.68
2022-08-14T04:18:32.293Z,20.76
2022-08-14T04:20:09.920Z,20.82
2022-08-14T04:22:02.458Z,20.88
2022-08-14T04:23:36.990Z,20.92
2022-08-14T04:25:11.413Z,20.96
2022-08-14T04:26:44.566Z,20.95
2022-08-14T04:29:09.208Z,20.99
2022-08-14T04:30:13.595Z,21.05
2022-08-14T04:33:10.488Z,21.06
2022-08-14T04:33:56.170Z,21.15
2022-08-14T04:35:56.387Z,21.19
2022-08-14T04:37:42.454Z,21.22
2022-08-14T04:39:46.679Z,21.25
2022-08-14T04:41:38.109Z,21.24
2022-08-14T04:43:38.437Z,21.24
2022-08-14T04:45:15.269Z,21.26
2022-08-14T04:47:03.072Z,21.28
2022-08-14T04:48:43.288Z,21.37
2022-08-14T04:50:31.383Z,21.42
2022-08-14T04:52:18.921Z,21.54
2022-08-14T04:53:57.910Z,21.57
2022-08-14T04:55:30.905Z,21.52
2022-08-14T04:57:04.362Z,21.44
2022-08-14T04:58:38.975Z,21.45
2022-08-14T05:00:16.383Z,21.47
2022-08-14T05:01:56.790Z,21.50
2022-08-14T05:03:33.434Z,21.54
2022-08-14T05:05:09.190Z,21.49
2022-08-14T05:06:42.831Z,21.59
2022-08-14T05:08:31.936Z,21.59
2022-08-14T05:10:13.297Z,21.56
2022-08-14T05:11:51.500Z,21.54
2022-08-14T05:13:29.889Z,21.40
2022-08-14T05:15:03.913Z,21.39
2022-08-14T05:16:38.608Z,21.41
2022-08-14T05:18:37.176Z,21.40
2022-08-14T05:21:04.764Z,21.44
2022-08-14T05:22:17.313Z,21.50
2022-08-14T05:23:53.826Z,21.55
2022-08-14T05:25:30.630Z,21.58
2022-08-14T05:27:07.664Z,21.58
2022-08-14T05:28:44.462Z,21.47
2022-08-14T05:30:20.142Z,21.46
2022-08-14T05:31:57.351Z,21.52
2022-08-14T05:33:33.336Z,21.59
2022-08-14T05:35:11.506Z,21.63
2022-08-14T05:36:50.612Z,21.68
2022-08-14T05:38:37.179Z,21.72
2022-08-14T05:40:11.215Z,21.72
2022-08-14T05:41:53.375Z,21.79
2022-08-14T05:43:40.592Z,21.84
2022-08-14T05:45:17.557Z,21.90
2022-08-14T05:46:50.799Z,21.93
2022-08-14T05:48:33.884Z,22.00
2022-08-14T05:50:17.486Z,22.12
2022-08-14T05:51:52.920Z,22.15
2022-08-14T05:53:28.157Z,22.16
2022-08-14T05:55:09.390Z,22.24
2022-08-14T05:56:42.713Z,22.24
2022-08-14T05:58:17.652Z,22.27
2022-08-14T05:59:53.445Z,22.31
2022-08-14T06:01:27.442Z,22.38
2022-08-14T06:03:07.238Z,22.39
2022-08-14T06:04:48.546Z,22.40
2022-08-14T06:06:22.860Z,22.48
2022-08-14T06:07:57.392Z,22.48
2022-08-14T06:09:35.544Z,22.46
2022-08-14T06:11:14.928Z,22.50
2022-08-14T06:12:58.406Z,22.58
2022-08-14T06:14:32.087Z,22.70
2022-08-14T06:16:06.207Z,22.84
2022-08-14T06:17:47.140Z,22.88
2022-08-14T06:19:29.031Z,22.96
2022-08-14T06:21:05.181Z,23.00
2022-08-14T06:22:48.004Z,23.06
2022-08-14T06:24:22.846Z,23.07
2022-08-14T06:25:59.241Z,23.08
2022-08-14T06:27:37.259Z,23.09
2022-08-14T06:29:11.738Z,23.13
2022-08-14T06:30:47.198Z,23.21
2022-08-14T06:32:38.600Z,23.33
2022-08-14T06:35:11.764Z,23.36
2022-08-14T06:36:08.459Z,23.39
2022-08-14T06:37:47.831Z,23.46
2022-08-14T06:39:36.597Z,23.43
2022-08-14T06:41:11.058Z,23.52
2022-08-14T06:42:44.513Z,23.59
2022-08-14T06:44:22.891Z,23.64
2022-08-14T06:46:06.360Z,23.73
2022-08-14T06:47:50.688Z,23.72
2022-08-14T06:49:27.866Z,23.73
2022-08-14T06:51:03.582Z,23.85
2022-08-14T06:52:37.855Z,23.86
2022-08-14T06:54:11.105Z,23.88
2022-08-14T06:55:53.189Z,23.89
2022-08-14T06:57:37.468Z,23.94
2022-08-14T06:59:19.536Z,23.96
2022-08-14T07:01:11.375Z,23.97
2022-08-14T07:03:03.533Z,23.86
2022-08-14T07:04:54.389Z,23.96
2022-08-14T07:06:46.345Z,24.01
2022-08-14T07:08:26.430Z,23.97
2022-08-14T07:10:05.822Z,23.90
2022-08-14T07:11:39.520Z,23.99
2022-08-14T07:13:15.277Z,23.99
2022-08-14T07:14:48.578Z,24.03
2022-08-14T07:16:22.959Z,24.06
2022-08-14T07:18:01.236Z,24.10
2022-08-14T07:19:34.489Z,24.08
2022-08-14T07:21:10.414Z,24.14
2022-08-14T07:22:56.454Z,24.14
2022-08-14T07:24:31.925Z,24.15
2022-08-14T07:26:07.515Z,24.15
2022-08-14T07:27:44.270Z,24.17
2022-08-14T07:29:18.508Z,24.19
2022-08-14T07:31:04.627Z,24.19
2022-08-14T07:32:38.540Z,24.29
2022-08-14T07:34:12.118Z,24.39
2022-08-14T07:36:26.507Z,24.52
2022-08-14T07:38:01.226Z,24.40
2022-08-14T07:39:35.784Z,24.44
2022-08-14T07:41:14.723Z,24.49
2022-08-14T07:42:48.681Z,24.60
2022-08-14T07:44:31.903Z,24.56
2022-08-14T07:46:07.077Z,24.59
2022-08-14T07:47:44.423Z,24.64
2022-08-14T07:49:18.473Z,24.66
2022-08-14T07:50:51.961Z,24.71
2022-08-14T07:52:30.898Z,24.78
2022-08-14T07:54:10.918Z,24.89
2022-08-14T07:56:09.244Z,24.96
2022-08-14T07:57:40.908Z,25.12
2022-08-14T07:59:17.114Z,25.22
2022-08-14T08:00:56.369Z,25.33
2022-08-14T08:02:32.932Z,25.45
2022-08-14T08:04:16.567Z,25.46
2022-08-14T08:05:53.044Z,25.49
2022-08-14T08:07:29.838Z,25.61
2022-08-14T08:09:04.350Z,25.74
2022-08-14T08:11:02.389Z,25.70
2022-08-14T08:12:36.989Z,25.67
2022-08-14T08:14:17.320Z,25.71
2022-08-14T08:15:53.870Z,25.70
2022-08-14T08:17:34.514Z,25.91
2022-08-14T08:19:13.934Z,26.02
2022-08-14T08:20:52.241Z,26.08
2022-08-14T08:22:27.250Z,26.21
2022-08-14T08:24:00.702Z,26.31
2022-08-14T08:25:40.465Z,26.38
2022-08-14T08:27:17.564Z,26.43
2022-08-14T08:28:59.066Z,26.37
2022-08-14T08:30:34.410Z,26.43
2022-08-14T08:32:08.970Z,26.34
2022-08-14T08:33:44.926Z,26.42
2022-08-14T08:35:24.346Z,26.54
2022-08-14T08:37:02.735Z,26.53
2022-08-14T08:39:16.744Z,26.41
2022-08-14T08:40:42.318Z,26.54
2022-08-14T08:42:31.728Z,26.72
2022-08-14T08:44:17.378Z,26.94
2022-08-14T08:46:13.065Z,27.27
2022-08-14T08:47:54.520Z,27.48
2022-08-14T08:49:42.338Z,27.72
2022-08-14T08:51:25.149Z,28.09
2022-08-14T08:53:06.432Z,28.42
2022-08-14T08:54:39.511Z,28.43
2022-08-14T08:56:16.906Z,28.68
2022-08-14T08:58:16.223Z,29.52
2022-08-14T08:59:54.769Z,29.99
2022-08-14T09:01:30.913Z,30.07
2022-08-14T09:03:10.122Z,30.14
2022-08-14T09:04:53.535Z,29.91
2022-08-14T09:06:59.914Z,29.84
2022-08-14T09:08:30.700Z,29.72
2022-08-14T09:10:06.103Z,29.51
2022-08-14T09:11:41.547Z,29.75
2022-08-14T09:13:15.811Z,29.98
2022-08-14T09:14:51.386Z,29.97
2022-08-14T09:16:26.520Z,30.14
2022-08-14T09:18:01.436Z,30.01
2022-08-14T09:19:34.887Z,29.63
2022-08-14T09:21:09.582Z,29.74
2022-08-14T09:22:50.024Z,29.56
2022-08-14T09:24:29.225Z,29.56
2022-08-14T09:26:20.833Z,29.65
2022-08-14T09:27:54.758Z,29.33
2022-08-14T09:29:29.371Z,29.42
2022-08-14T09:31:17.902Z,29.02
2022-08-14T09:33:22.621Z,29.09
2022-08-14T09:35:10.708Z,29.24
2022-08-14T09:37:13.224Z,29.05
2022-08-14T09:38:50.993Z,29.18
2022-08-14T09:40:47.671Z,29.20
2022-08-14T09:42:50.996Z,29.49
2022-08-14T09:44:40.515Z,29.67
2022-08-14T09:46:16.976Z,29.65
2022-08-14T09:47:57.990Z,29.38
2022-08-14T09:49:39.807Z,29.50
2022-08-14T09:51:25.456Z,29.65
2022-08-14T09:53:03.768Z,29.53
2022-08-14T09:54:39.806Z,29.53
2022-08-14T09:56:13.150Z,29.65
2022-08-14T09:58:19.362Z,29.52
2022-08-14T09:59:54.532Z,29.46
2022-08-14T10:01:40.454Z,29.47
2022-08-14T10:03:33.268Z,29.24
2022-08-14T10:05:09.826Z,28.75
2022-08-14T10:06:45.365Z,28.77
2022-08-14T10:08:26.258Z,28.67
2022-08-14T10:10:02.483Z,28.46
2022-08-14T10:11:37.877Z,28.29
2022-08-14T10:13:24.794Z,28.22
2022-08-14T10:14:57.967Z,28.32
2022-08-14T10:16:43.374Z,28.33
2022-08-14T10:18:21.996Z,28.38
2022-08-14T10:19:57.943Z,28.28
2022-08-14T10:21:31.683Z,28.28
2022-08-14T10:23:17.965Z,28.48
2022-08-14T10:24:51.450Z,28.57
2022-08-14T10:26:28.158Z,28.62
2022-08-14T10:28:02.433Z,28.54
2022-08-14T10:29:38.456Z,28.19
2022-08-14T10:31:25.645Z,28.33
2022-08-14T10:33:00.241Z,28.48
2022-08-14T10:34:36.896Z,28.55
2022-08-14T10:36:34.791Z,28.50
2022-08-14T10:38:10.745Z,28.27
2022-08-14T10:40:02.062Z,28.20
2022-08-14T10:41:48.627Z,27.86
2022-08-14T10:43:27.255Z,27.90
2022-08-14T10:45:00.528Z,27.88
2022-08-14T10:47:36.587Z,27.88
2022-08-14T10:48:38.371Z,27.97
2022-08-14T10:50:18.483Z,27.93
2022-08-14T10:52:06.303Z,27.86
2022-08-14T10:53:40.123Z,27.96
2022-08-14T10:55:21.051Z,27.71
2022-08-14T10:56:56.013Z,27.64
2022-08-14T10:58:34.236Z,27.68
2022-08-14T11:00:20.779Z,27.53
2022-08-14T11:02:02.843Z,27.50
2022-08-14T11:03:56.973Z,27.36
2022-08-14T11:05:42.093Z,27.43
2022-08-14T11:07:21.257Z,27.42
2022-08-14T11:08:55.333Z,27.47
2022-08-14T11:10:40.075Z,27.30
2022-08-14T11:12:44.092Z,27.24
2022-08-14T11:14:09.779Z,27.39
2022-08-14T11:15:43.297Z,27.49
2022-08-14T11:17:18.154Z,27.38
2022-08-14T11:18:59.537Z,27.36
2022-08-14T11:20:33.186Z,27.40
2022-08-14T11:22:07.179Z,27.32
2022-08-14T11:23:53.561Z,27.38
2022-08-14T11:25:43.249Z,27.45
2022-08-14T11:27:22.811Z,27.24
2022-08-14T11:29:07.915Z,27.11
2022-08-14T11:30:50.272Z,26.94
2022-08-14T11:32:25.411Z,26.82
2022-08-14T11:33:59.818Z,26.60
2022-08-14T11:35:44.089Z,26.37
2022-08-14T11:37:32.623Z,26.19
2022-08-14T11:39:33.346Z,26.00
2022-08-14T11:41:08.117Z,25.93
2022-08-14T11:42:58.870Z,25.91
2022-08-14T11:44:45.663Z,25.79
2022-08-14T11:46:30.247Z,25.75
2022-08-14T11:49:02.360Z,25.69
2022-08-14T11:50:34.056Z,25.60
2022-08-14T11:52:12.893Z,25.75
2022-08-14T11:53:52.713Z,25.77
2022-08-14T11:55:28.131Z,25.91
2022-08-14T11:57:00.633Z,25.84
2022-08-14T11:58:35.825Z,25.86
2022-08-14T12:00:14.748Z,25.94
2022-08-14T12:01:52.792Z,26.13
2022-08-14T12:03:46.080Z,26.28
2022-08-14T12:05:33.479Z,26.50
2022-08-14T12:07:09.158Z,26.70
2022-08-14T12:08:43.156Z,26.83
2022-08-14T12:10:37.273Z,27.00
2022-08-14T12:12:35.229Z,27.09
2022-08-14T12:14:13.462Z,27.05
2022-08-14T12:16:11.366Z,27.27
2022-08-14T12:17:55.931Z,27.46
2022-08-14T12:19:33.494Z,27.62
2022-08-14T12:21:15.815Z,27.67
2022-08-14T12:22:55.013Z,27.70
2022-08-14T12:24:36.822Z,27.47
2022-08-14T12:26:39.049Z,27.52
2022-08-14T12:28:26.749Z,27.62
2022-08-14T12:30:08.033Z,27.51
2022-08-14T12:31:44.607Z,27.39
2022-08-14T12:33:30.567Z,27.39
2022-08-14T12:35:06.763Z,27.35
2022-08-14T12:36:40.365Z,27.42
2022-08-14T12:38:19.445Z,27.51
2022-08-14T12:39:52.964Z,27.32
2022-08-14T12:41:34.458Z,27.11
2022-08-14T12:43:10.907Z,26.91
2022-08-14T12:44:50.212Z,26.74
2022-08-14T12:46:26.709Z,26.84
2022-08-14T12:48:21.181Z,26.38
2022-08-14T12:50:00.615Z,26.36
2022-08-14T12:51:34.477Z,26.51
2022-08-14T12:53:17.292Z,26.38
2022-08-14T12:55:06.095Z,26.38
2022-08-14T12:56:40.236Z,26.19
2022-08-14T12:58:34.924Z,26.09
2022-08-14T13:00:22.555Z,26.17
2022-08-14T13:02:02.445Z,25.96
2022-08-14T13:03:39.559Z,25.88
2022-08-14T13:05:15.748Z,25.74
2022-08-14T13:06:51.428Z,25.47
2022-08-14T13:08:33.829Z,25.27
2022-08-14T13:10:46.191Z,25.15
2022-08-14T13:12:32.556Z,25.04
2022-08-14T13:14:01.136Z,25.00
2022-08-14T13:15:36.214Z,24.95
2022-08-14T13:17:11.714Z,25.00
2022-08-14T13:18:47.135Z,25.04
2022-08-14T13:20:32.525Z,25.01
2022-08-14T13:22:09.625Z,24.92
2022-08-14T13:23:45.332Z,24.91
2022-08-14T13:25:20.444Z,24.85
2022-08-14T13:26:59.668Z,24.88
2022-08-14T13:28:41.274Z,24.88
2022-08-14T13:30:29.414Z,24.86
2022-08-14T13:32:06.170Z,24.84
2022-08-14T13:33:41.329Z,24.80
2022-08-14T13:35:17.707Z,24.77
2022-08-14T13:36:59.321Z,24.72
2022-08-14T13:38:38.901Z,24.75
2022-08-14T13:40:13.687Z,24.78
2022-08-14T13:41:47.860Z,24.74
2022-08-14T13:43:31.491Z,24.71
2022-08-14T13:45:12.074Z,24.63
2022-08-14T13:46:46.378Z,24.52
2022-08-14T13:48:33.282Z,24.55
2022-08-14T13:50:12.913Z,24.49
2022-08-14T13:51:50.494Z,24.52
2022-08-14T13:53:28.244Z,24.59
2022-08-14T13:55:08.140Z,24.66
2022-08-14T13:56:47.742Z,24.62
2022-08-14T13:58:30.462Z,24.63
2022-08-14T14:00:12.944Z,24.60
2022-08-14T14:01:51.728Z,24.60
2022-08-14T14:03:30.528Z,24.59
2022-08-14T14:05:05.290Z,24.49
2022-08-14T14:06:39.273Z,24.50
2022-08-14T14:08:18.758Z,24.48
2022-08-14T14:09:56.453Z,24.53
2022-08-14T14:11:30.266Z,24.48
2022-08-14T14:13:06.148Z,24.51
2022-08-14T14:14:50.943Z,24.56
2022-08-14T14:16:30.791Z,24.54
2022-08-14T14:18:04.934Z,24.47
2022-08-14T14:19:49.167Z,24.48
2022-08-14T14:21:28.597Z,24.51
2022-08-14T14:23:03.655Z,24.52
2022-08-14T14:24:44.107Z,24.44
2022-08-14T14:26:23.112Z,24.39
2022-08-14T14:28:00.743Z,24.45
2022-08-14T14:29:46.091Z,24.40
2022-08-14T14:31:30.247Z,24.46
2022-08-14T14:33:14.380Z,24.44
2022-08-14T14:35:03.665Z,24.47
2022-08-14T14:36:37.396Z,24.43
2022-08-14T14:38:18.363Z,24.44
2022-08-14T14:40:54.149Z,24.42
2022-08-14T14:41:56.416Z,24.33
2022-08-14T14:43:30.623Z,24.31
2022-08-14T14:45:07.750Z,24.24
2022-08-14T14:46:44.619Z,24.19
2022-08-14T14:48:20.233Z,24.15
2022-08-14T14:49:55.673Z,24.02
2022-08-14T14:51:30.420Z,24.01
2022-08-14T14:53:13.187Z,24.02
2022-08-14T14:54:49.834Z,24.03
2022-08-14T14:56:47.448Z,24.04
2022-08-14T14:58:20.546Z,24.07
2022-08-14T14:59:52.802Z,24.07
2022-08-14T15:01:26.497Z,24.02
2022-08-14T15:03:01.086Z,23.94
2022-08-14T15:04:37.560Z,23.78
2022-08-14T15:06:12.757Z,23.75
2022-08-14T15:07:54.113Z,23.81
2022-08-14T15:09:27.608Z,23.80
2022-08-14T15:11:01.186Z,23.85
2022-08-14T15:12:56.149Z,23.75
2022-08-14T15:14:55.498Z,23.77
2022-08-14T15:16:22.701Z,23.76
2022-08-14T15:17:59.055Z,23.77
2022-08-14T15:19:32.883Z,23.77
2022-08-14T15:21:07.137Z,23.78
2022-08-14T15:22:43.644Z,23.79
2022-08-14T15:24:27.017Z,23.78
2022-08-14T15:26:01.282Z,23.75
2022-08-14T15:27:34.935Z,23.71
2022-08-14T15:29:08.477Z,23.69
2022-08-14T15:30:42.830Z,23.71
2022-08-14T15:32:22.408Z,23.74
2022-08-14T15:34:43.045Z,23.80
2022-08-14T15:36:25.732Z,23.85
2022-08-14T15:38:09.185Z,23.83
2022-08-14T15:39:44.348Z,23.82
2022-08-14T15:41:17.836Z,23.79
2022-08-14T15:42:51.090Z,23.76
2022-08-14T15:44:28.878Z,23.73
2022-08-14T15:46:09.487Z,23.72
2022-08-14T15:48:02.673Z,23.71
2022-08-14T15:49:39.823Z,23.69
2022-08-14T15:51:13.134Z,23.62
2022-08-14T15:52:46.645Z,23.56
2022-08-14T15:54:22.081Z,23.52
2022-08-14T15:55:58.138Z,23.50
2022-08-14T15:57:32.117Z,23.51
2022-08-14T15:59:05.535Z,23.43
2022-08-14T16:00:56.130Z,23.36
2022-08-14T16:02:30.615Z,23.23
2022-08-14T16:04:04.091Z,23.12
2022-08-14T16:05:42.161Z,23.06
2022-08-14T16:07:15.655Z,23.02
2022-08-14T16:08:58.754Z,23.03
2022-08-14T16:10:34.670Z,23.01
2022-08-14T16:12:10.333Z,23.00
2022-08-14T16:13:44.782Z,22.96
2022-08-14T16:15:22.654Z,22.88
2022-08-14T16:17:00.353Z,22.86
2022-08-14T16:18:37.453Z,22.84
2022-08-14T16:20:41.370Z,22.84
2022-08-14T16:23:00.428Z,22.80
2022-08-14T16:24:05.689Z,22.78
2022-08-14T16:25:40.911Z,22.76
2022-08-14T16:27:15.800Z,22.72
2022-08-14T16:28:56.602Z,22.62
2022-08-14T16:30:31.789Z,22.60
2022-08-14T16:32:33.520Z,22.54
2022-08-14T16:34:00.739Z,22.48
2022-08-14T16:35:59.490Z,22.41
2022-08-14T16:37:37.966Z,22.31
2022-08-14T16:39:17.654Z,22.34
2022-08-14T16:41:11.520Z,22.31
2022-08-14T16:43:04.491Z,22.27
2022-08-14T16:44:47.410Z,22.14
2022-08-14T16:46:22.452Z,22.06
2022-08-14T16:47:57.405Z,21.97
2022-08-14T16:50:03.102Z,21.91
2022-08-14T16:51:24.445Z,21.81
2022-08-14T16:53:01.201Z,21.71
2022-08-14T16:54:44.699Z,21.62
2022-08-14T16:56:23.766Z,21.61
2022-08-14T16:57:59.942Z,21.53
2022-08-14T16:59:52.386Z,21.50
2022-08-14T17:01:27.928Z,21.47
2022-08-14T17:03:05.111Z,21.32
2022-08-14T17:04:43.494Z,21.23
2022-08-14T17:06:38.724Z,21.11
2022-08-14T17:08:32.857Z,21.08
2022-08-14T17:10:13.016Z,21.04
2022-08-14T17:11:54.442Z,21.04
2022-08-14T17:13:59.383Z,20.99
2022-08-14T17:15:25.024Z,20.95
2022-08-14T17:17:00.948Z,20.92
2022-08-14T17:18:41.435Z,20.97
2022-08-14T17:20:53.422Z,20.94
2022-08-14T17:22:12.302Z,20.88
2022-08-14T17:23:47.269Z,20.94
2022-08-14T17:25:22.711Z,20.95
2022-08-14T17:26:56.034Z,20.97
2022-08-14T17:28:51.740Z,21.00
2022-08-14T17:30:32.260Z,21.03
2022-08-14T17:32:10.506Z,21.04
2022-08-14T17:33:58.821Z,21.02
2022-08-14T17:35:57.662Z,21.02
2022-08-14T17:37:30.256Z,21.07
2022-08-14T17:39:09.171Z,21.05
2022-08-14T17:41:05.566Z,21.04
2022-08-14T17:42:53.339Z,21.08
2022-08-14T17:44:33.961Z,21.10
2022-08-14T17:46:19.511Z,21.12
2022-08-14T17:47:53.548Z,21.13
2022-08-14T17:49:32.262Z,21.11
2022-08-14T17:51:07.932Z,21.10
2022-08-14T17:52:50.102Z,21.13
2022-08-14T17:54:34.927Z,21.13
2022-08-14T17:56:08.663Z,21.14
2022-08-14T17:57:43.903Z,21.14
2022-08-14T17:59:18.571Z,21.15
2022-08-14T18:00:57.657Z,21.16
2022-08-14T18:02:40.608Z,21.18
2022-08-14T18:04:28.957Z,21.17
2022-08-14T18:06:07.339Z,21.18
2022-08-14T18:07:59.524Z,21.17
2022-08-14T18:09:56.675Z,21.15
2022-08-14T18:11:46.237Z,21.07
2022-08-14T18:13:50.121Z,21.10
2022-08-14T18:15:17.826Z,21.11
2022-08-14T18:16:55.881Z,21.09
2022-08-14T18:18:31.881Z,21.12
2022-08-14T18:20:16.035Z,21.13
2022-08-14T18:22:05.632Z,21.14
2022-08-14T18:23:58.019Z,20.98
2022-08-14T18:25:34.204Z,21.07
2022-08-14T18:27:13.055Z,21.05
2022-08-14T18:28:52.099Z,21.04
2022-08-14T18:30:31.735Z,20.99
2022-08-14T18:32:47.560Z,20.96
2022-08-14T18:34:37.807Z,20.85
2022-08-14T18:36:47.645Z,20.81
2022-08-14T18:38:26.045Z,20.71
2022-08-14T18:40:34.571Z,20.68
2022-08-14T18:42:46.656Z,20.66
2022-08-14T18:44:53.493Z,20.73
2022-08-14T18:46:59.994Z,20.77
2022-08-14T18:48:50.561Z,20.82
2022-08-14T18:50:27.480Z,20.85
2022-08-14T18:52:18.875Z,20.83
2022-08-14T18:53:59.437Z,20.87
2022-08-14T18:55:47.489Z,20.90
2022-08-14T18:57:51.451Z,20.96
2022-08-14T18:59:35.674Z,21.02
2022-08-14T19:01:24.410Z,21.03
2022-08-14T19:02:57.187Z,20.99
2022-08-14T19:04:41.740Z,21.03
2022-08-14T19:06:16.632Z,21.03
2022-08-14T19:08:25.227Z,21.06
2022-08-14T19:10:02.037Z,21.06
2022-08-14T19:11:50.315Z,21.05
2022-08-14T19:13:44.748Z,21.02
2022-08-14T19:15:27.457Z,21.00
2022-08-14T19:17:00.753Z,20.94
2022-08-14T19:18:38.646Z,20.86
2022-08-14T19:20:14.348Z,20.82
2022-08-14T19:21:56.924Z,20.82
2022-08-14T19:23:40.726Z,20.81
2022-08-14T19:25:48.982Z,20.79
2022-08-14T19:27:37.558Z,20.76
2022-08-14T19:29:23.633Z,20.76
2022-08-14T19:31:37.061Z,20.72
2022-08-14T19:33:51.980Z,20.62
2022-08-14T19:35:55.908Z,20.51
2022-08-14T19:37:52.791Z,20.52
2022-08-14T19:39:53.804Z,20.53
2022-08-14T19:41:30.192Z,20.49
2022-08-14T19:43:06.518Z,20.46
2022-08-14T19:44:44.496Z,20.42
2022-08-14T19:46:37.674Z,20.44
2022-08-14T19:48:15.565Z,20.41
2022-08-14T19:50:24.872Z,20.44
2022-08-14T19:51:48.744Z,20.45
2022-08-14T19:53:22.176Z,20.41
2022-08-14T19:54:56.278Z,20.47
2022-08-14T19:56:34.827Z,20.46
2022-08-14T19:58:10.049Z,20.45
2022-08-14T19:59:58.115Z,20.42
2022-08-14T20:01:37.670Z,20.40
2022-08-14T20:03:15.115Z,20.35
2022-08-14T20:04:58.682Z,20.33
2022-08-14T20:06:46.388Z,20.27
2022-08-14T20:10:58.886Z,20.24
2022-08-14T20:11:03.429Z,20.21
2022-08-14T20:12:29.205Z,20.21
2022-08-14T20:14:20.589Z,20.23
2022-08-14T20:15:56.186Z,20.25
2022-08-14T20:17:29.806Z,20.28
2022-08-14T20:19:23.227Z,20.21
2022-08-14T20:20:56.943Z,20.24
2022-08-14T20:22:39.017Z,20.22
2022-08-14T20:24:40.908Z,20.19
2022-08-14T20:26:31.381Z,20.18
2022-08-14T20:28:28.937Z,20.17
2022-08-14T20:30:33.203Z,20.15
2022-08-14T20:32:05.856Z,20.18
2022-08-14T20:33:47.903Z,20.18
2022-08-14T20:35:35.377Z,20.16
2022-08-14T20:37:22.503Z,20.13
2022-08-14T20:38:57.222Z,20.10
2022-08-14T20:40:34.979Z,20.07
2022-08-14T20:42:32.153Z,20.08
2022-08-14T20:44:28.727Z,20.06
2022-08-14T20:46:12.020Z,20.11
2022-08-14T20:47:53.734Z,20.12
2022-08-14T20:49:31.094Z,20.13
2022-08-14T20:51:23.916Z,20.10
2022-08-14T20:52:58.394Z,20.16
2022-08-14T20:54:34.643Z,20.19
2022-08-14T20:56:30.102Z,20.22
2022-08-14T20:58:09.822Z,20.25
2022-08-14T20:59:47.056Z,20.25
2022-08-14T21:01:35.906Z,20.28
2022-08-14T21:03:34.649Z,20.28
2022-08-14T21:05:17.127Z,20.26
2022-08-14T21:07:24.362Z,20.30
2022-08-14T21:08:48.411Z,20.33
2022-08-14T21:10:33.933Z,20.34
2022-08-14T21:12:33.658Z,20.36
2022-08-14T21:14:19.947Z,20.35
2022-08-14T21:15:58.783Z,20.38
2022-08-14T21:17:37.519Z,20.38
2022-08-14T21:19:16.274Z,20.34
2022-08-14T21:20:50.107Z,20.41
2022-08-14T21:22:23.282Z,20.42
2022-08-14T21:24:00.511Z,20.41
2022-08-14T21:25:35.876Z,20.38
2022-08-14T21:27:19.726Z,20.31
2022-08-14T21:28:55.197Z,20.36
2022-08-14T21:30:51.030Z,20.40
2022-08-14T21:32:33.636Z,20.38
2022-08-14T21:34:31.679Z,20.41
2022-08-14T21:36:06.003Z,20.39
2022-08-14T21:37:47.626Z,20.44
2022-08-14T21:39:22.514Z,20.42
2022-08-14T21:40:58.440Z,20.45
2022-08-14T21:42:32.471Z,20.49
2022-08-14T21:44:18.227Z,20.53
2022-08-14T21:45:58.148Z,20.54
2022-08-14T21:47:32.236Z,20.52
2022-08-14T21:49:10.095Z,20.47